sensor_id;sensor_type;location;lat;lon;timestamp;temperature;humidity
33815;DHT22;20121;51.910;8.406;2023-06-14T00:01:01;18.00;62.90
33815;DHT22;20121;51.910;8.406;2023-06-14T00:03:29;17.90;63.10
33815;DHT22;20121;51.910;8.406;2023-06-14T00:05:54;17.90;63.80
33815;DHT22;20121;51.910;8.406;2023-06-14T00:08:20;17.90;63.70
33815;DHT22;20121;51.910;8.406;2023-06-14T00:10:48;17.80;63.30
33815;DHT22;20121;51.910;8.406;2023-06-14T00:13:14;17.80;64.10
33815;DHT22;20121;51.910;8.406;2023-06-14T00:15:40;17.70;64.30
33815;DHT22;20121;51.910;8.406;2023-06-14T00:18:06;17.70;64.80
33815;DHT22;20121;51.910;8.406;2023-06-14T00:20:33;17.60;64.30
33815;DHT22;20121;51.910;8.406;2023-06-14T00:23:01;17.60;64.80
33815;DHT22;20121;51.910;8.406;2023-06-14T00:25:28;17.40;70.70
33815;DHT22;20121;51.910;8.406;2023-06-14T00:27:54;17.60;65.40
33815;DHT22;20121;51.910;8.406;2023-06-14T00:30:20;17.60;72.50
33815;DHT22;20121;51.910;8.406;2023-06-14T00:32:47;17.50;65.50
33815;DHT22;20121;51.910;8.406;2023-06-14T00:35:12;17.50;65.60
33815;DHT22;20121;51.910;8.406;2023-06-14T00:37:38;17.40;65.80
33815;DHT22;20121;51.910;8.406;2023-06-14T00:40:05;17.30;66.90
33815;DHT22;20121;51.910;8.406;2023-06-14T00:42:31;17.30;65.70
33815;DHT22;20121;51.910;8.406;2023-06-14T00:44:57;17.30;66.30
33815;DHT22;20121;51.910;8.406;2023-06-14T00:47:23;17.30;66.40
33815;DHT22;20121;51.910;8.406;2023-06-14T00:49:53;17.20;66.00
33815;DHT22;20121;51.910;8.406;2023-06-14T00:52:20;17.20;66.00
33815;DHT22;20121;51.910;8.406;2023-06-14T00:54:46;17.20;66.80
33815;DHT22;20121;51.910;8.406;2023-06-14T00:57:12;17.20;74.50
33815;DHT22;20121;51.910;8.406;2023-06-14T00:59:43;17.20;67.00
33815;DHT22;20121;51.910;8.406;2023-06-14T01:02:09;17.10;66.80
33815;DHT22;20121;51.910;8.406;2023-06-14T01:07:02;17.00;66.80
33815;DHT22;20121;51.910;8.406;2023-06-14T01:10:05;17.00;67.70
33815;DHT22;20121;51.910;8.406;2023-06-14T01:12:59;17.30;72.70
33815;DHT22;20121;51.910;8.406;2023-06-14T01:15:30;16.70;73.60
33815;DHT22;20121;51.910;8.406;2023-06-14T01:17:56;16.90;67.90
33815;DHT22;20121;51.910;8.406;2023-06-14T01:20:29;17.10;75.60
33815;DHT22;20121;51.910;8.406;2023-06-14T01:22:56;16.90;68.70
33815;DHT22;20121;51.910;8.406;2023-06-14T01:25:23;16.80;68.80
33815;DHT22;20121;51.910;8.406;2023-06-14T01:27:50;16.70;76.30
33815;DHT22;20121;51.910;8.406;2023-06-14T01:30:17;16.60;74.50
33815;DHT22;20121;51.910;8.406;2023-06-14T01:32:43;16.70;69.40
33815;DHT22;20121;51.910;8.406;2023-06-14T01:35:10;16.60;69.20
33815;DHT22;20121;51.910;8.406;2023-06-14T01:37:35;16.60;69.90
33815;DHT22;20121;51.910;8.406;2023-06-14T01:40:04;16.50;69.80
33815;DHT22;20121;51.910;8.406;2023-06-14T01:42:35;16.50;70.20
33815;DHT22;20121;51.910;8.406;2023-06-14T01:45:02;16.50;77.40
33815;DHT22;20121;51.910;8.406;2023-06-14T01:47:29;16.40;70.80
33815;DHT22;20121;51.910;8.406;2023-06-14T01:49:55;16.40;70.60
33815;DHT22;20121;51.910;8.406;2023-06-14T01:52:21;16.30;71.10
33815;DHT22;20121;51.910;8.406;2023-06-14T01:54:47;16.30;72.30
33815;DHT22;20121;51.910;8.406;2023-06-14T01:57:15;16.20;72.30
33815;DHT22;20121;51.910;8.406;2023-06-14T01:59:40;16.20;72.10
33815;DHT22;20121;51.910;8.406;2023-06-14T02:02:06;16.10;71.80
33815;DHT22;20121;51.910;8.406;2023-06-14T02:04:32;16.10;72.50
33815;DHT22;20121;51.910;8.406;2023-06-14T02:06:57;15.70;77.70
33815;DHT22;20121;51.910;8.406;2023-06-14T02:09:23;16.00;72.90
33815;DHT22;20121;51.910;8.406;2023-06-14T02:11:49;16.00;72.80
33815;DHT22;20121;51.910;8.406;2023-06-14T02:14:14;15.90;73.40
33815;DHT22;20121;51.910;8.406;2023-06-14T02:16:42;15.90;73.70
33815;DHT22;20121;51.910;8.406;2023-06-14T02:19:17;15.90;73.60
33815;DHT22;20121;51.910;8.406;2023-06-14T02:21:43;15.80;73.10
33815;DHT22;20121;51.910;8.406;2023-06-14T02:24:09;15.80;73.90
33815;DHT22;20121;51.910;8.406;2023-06-14T02:26:35;15.70;74.20
33815;DHT22;20121;51.910;8.406;2023-06-14T02:29:01;15.70;74.80
33815;DHT22;20121;51.910;8.406;2023-06-14T02:31:26;15.60;74.50
33815;DHT22;20121;51.910;8.406;2023-06-14T02:33:52;15.60;75.20
33815;DHT22;20121;51.910;8.406;2023-06-14T02:36:18;15.60;75.40
33815;DHT22;20121;51.910;8.406;2023-06-14T02:38:44;15.50;75.40
33815;DHT22;20121;51.910;8.406;2023-06-14T02:41:10;15.40;75.20
33815;DHT22;20121;51.910;8.406;2023-06-14T02:43:36;15.40;76.00
33815;DHT22;20121;51.910;8.406;2023-06-14T02:46:02;15.40;75.90
33815;DHT22;20121;51.910;8.406;2023-06-14T02:48:28;15.40;76.50
33815;DHT22;20121;51.910;8.406;2023-06-14T02:50:53;15.30;76.20
33815;DHT22;20121;51.910;8.406;2023-06-14T02:53:19;15.30;76.70
33815;DHT22;20121;51.910;8.406;2023-06-14T02:55:45;15.20;76.60
33815;DHT22;20121;51.910;8.406;2023-06-14T02:58:12;15.20;76.90
33815;DHT22;20121;51.910;8.406;2023-06-14T03:00:38;15.20;77.30
33815;DHT22;20121;51.910;8.406;2023-06-14T03:03:04;15.10;78.00
33815;DHT22;20121;51.910;8.406;2023-06-14T03:05:30;15.10;78.00
33815;DHT22;20121;51.910;8.406;2023-06-14T03:07:55;15.10;77.90
33815;DHT22;20121;51.910;8.406;2023-06-14T03:10:22;15.00;77.50
33815;DHT22;20121;51.910;8.406;2023-06-14T03:12:47;15.00;78.90
33815;DHT22;20121;51.910;8.406;2023-06-14T03:15:13;15.00;78.40
33815;DHT22;20121;51.910;8.406;2023-06-14T03:17:39;14.60;82.40
33815;DHT22;20121;51.910;8.406;2023-06-14T03:20:05;14.80;79.00
33815;DHT22;20121;51.910;8.406;2023-06-14T03:22:31;14.90;78.70
33815;DHT22;20121;51.910;8.406;2023-06-14T03:24:59;14.90;78.90
33815;DHT22;20121;51.910;8.406;2023-06-14T03:27:25;14.80;79.00
33815;DHT22;20121;51.910;8.406;2023-06-14T03:29:53;14.80;78.30
33815;DHT22;20121;51.910;8.406;2023-06-14T03:32:19;14.80;78.30
33815;DHT22;20121;51.910;8.406;2023-06-14T03:34:45;14.80;79.10
33815;DHT22;20121;51.910;8.406;2023-06-14T03:37:10;14.80;79.10
33815;DHT22;20121;51.910;8.406;2023-06-14T03:39:36;14.80;79.50
33815;DHT22;20121;51.910;8.406;2023-06-14T03:42:02;14.70;79.10
33815;DHT22;20121;51.910;8.406;2023-06-14T03:44:27;14.80;80.40
33815;DHT22;20121;51.910;8.406;2023-06-14T03:46:53;14.70;80.30
33815;DHT22;20121;51.910;8.406;2023-06-14T03:49:19;14.70;80.40
33815;DHT22;20121;51.910;8.406;2023-06-14T03:51:44;14.70;80.00
33815;DHT22;20121;51.910;8.406;2023-06-14T03:54:11;14.70;80.90
33815;DHT22;20121;51.910;8.406;2023-06-14T03:56:36;14.80;81.20
33815;DHT22;20121;51.910;8.406;2023-06-14T03:59:02;14.70;81.20
33815;DHT22;20121;51.910;8.406;2023-06-14T04:01:28;14.80;80.70
33815;DHT22;20121;51.910;8.406;2023-06-14T04:03:57;14.80;81.50
33815;DHT22;20121;51.910;8.406;2023-06-14T04:06:23;14.80;81.40
33815;DHT22;20121;51.910;8.406;2023-06-14T04:08:51;14.80;81.40
33815;DHT22;20121;51.910;8.406;2023-06-14T04:11:17;14.80;80.90
33815;DHT22;20121;51.910;8.406;2023-06-14T04:13:43;14.70;82.20
33815;DHT22;20121;51.910;8.406;2023-06-14T04:16:09;14.80;81.80
33815;DHT22;20121;51.910;8.406;2023-06-14T04:18:35;14.80;87.40
33815;DHT22;20121;51.910;8.406;2023-06-14T04:21:00;14.80;81.70
33815;DHT22;20121;51.910;8.406;2023-06-14T04:23:26;14.80;82.40
33815;DHT22;20121;51.910;8.406;2023-06-14T04:25:53;14.80;82.60
33815;DHT22;20121;51.910;8.406;2023-06-14T04:28:19;14.70;87.50
33815;DHT22;20121;51.910;8.406;2023-06-14T04:30:45;15.00;82.70
33815;DHT22;20121;51.910;8.406;2023-06-14T04:33:12;15.00;83.40
33815;DHT22;20121;51.910;8.406;2023-06-14T04:35:39;15.10;83.60
33815;DHT22;20121;51.910;8.406;2023-06-14T04:38:06;15.10;83.60
33815;DHT22;20121;51.910;8.406;2023-06-14T04:40:38;15.30;83.20
33815;DHT22;20121;51.910;8.406;2023-06-14T04:43:08;15.30;83.70
33815;DHT22;20121;51.910;8.406;2023-06-14T04:45:37;15.40;83.10
33815;DHT22;20121;51.910;8.406;2023-06-14T04:48:03;15.50;83.20
33815;DHT22;20121;51.910;8.406;2023-06-14T04:50:28;15.60;82.50
33815;DHT22;20121;51.910;8.406;2023-06-14T04:52:55;15.70;83.20
33815;DHT22;20121;51.910;8.406;2023-06-14T04:55:22;16.00;89.40
33815;DHT22;20121;51.910;8.406;2023-06-14T04:57:48;16.00;82.80
33815;DHT22;20121;51.910;8.406;2023-06-14T05:00:14;16.60;88.00
33815;DHT22;20121;51.910;8.406;2023-06-14T05:02:40;16.30;82.00
33815;DHT22;20121;51.910;8.406;2023-06-14T05:05:07;16.60;85.80
33815;DHT22;20121;51.910;8.406;2023-06-14T05:07:33;16.70;81.30
33815;DHT22;20121;51.910;8.406;2023-06-14T05:09:59;16.90;86.00
33815;DHT22;20121;51.910;8.406;2023-06-14T05:12:25;17.00;81.10
33815;DHT22;20121;51.910;8.406;2023-06-14T05:14:50;17.20;80.50
33815;DHT22;20121;51.910;8.406;2023-06-14T05:17:16;17.40;80.30
33815;DHT22;20121;51.910;8.406;2023-06-14T05:22:08;17.60;79.00
33815;DHT22;20121;51.910;8.406;2023-06-14T05:24:34;17.80;82.50
33815;DHT22;20121;51.910;8.406;2023-06-14T05:27:00;17.80;78.80
33815;DHT22;20121;51.910;8.406;2023-06-14T05:29:26;18.00;78.60
33815;DHT22;20121;51.910;8.406;2023-06-14T05:31:53;18.10;78.20
33815;DHT22;20121;51.910;8.406;2023-06-14T05:34:18;18.20;78.60
33815;DHT22;20121;51.910;8.406;2023-06-14T05:36:44;18.30;77.80
33815;DHT22;20121;51.910;8.406;2023-06-14T05:39:10;18.40;77.90
33815;DHT22;20121;51.910;8.406;2023-06-14T05:41:35;18.50;77.90
33815;DHT22;20121;51.910;8.406;2023-06-14T05:44:01;18.60;77.40
33815;DHT22;20121;51.910;8.406;2023-06-14T05:46:27;18.70;76.90
33815;DHT22;20121;51.910;8.406;2023-06-14T05:48:54;18.70;77.00
33815;DHT22;20121;51.910;8.406;2023-06-14T05:51:20;18.90;76.30
33815;DHT22;20121;51.910;8.406;2023-06-14T05:53:46;18.90;76.80
33815;DHT22;20121;51.910;8.406;2023-06-14T05:56:13;18.90;76.90
33815;DHT22;20121;51.910;8.406;2023-06-14T05:58:39;19.10;77.80
33815;DHT22;20121;51.910;8.406;2023-06-14T06:01:04;19.20;77.00
33815;DHT22;20121;51.910;8.406;2023-06-14T06:03:30;19.30;76.20
33815;DHT22;20121;51.910;8.406;2023-06-14T06:05:56;19.40;76.50
33815;DHT22;20121;51.910;8.406;2023-06-14T06:08:21;19.50;76.50
33815;DHT22;20121;51.910;8.406;2023-06-14T06:10:47;19.40;75.50
33815;DHT22;20121;51.910;8.406;2023-06-14T06:13:13;19.40;76.10
33815;DHT22;20121;51.910;8.406;2023-06-14T06:15:38;19.40;74.80
33815;DHT22;20121;51.910;8.406;2023-06-14T06:18:04;19.40;75.00
33815;DHT22;20121;51.910;8.406;2023-06-14T06:20:30;19.40;75.90
33815;DHT22;20121;51.910;8.406;2023-06-14T06:23:00;19.40;76.70
33815;DHT22;20121;51.910;8.406;2023-06-14T06:25:26;19.50;75.40
33815;DHT22;20121;51.910;8.406;2023-06-14T06:27:53;19.50;74.10
33815;DHT22;20121;51.910;8.406;2023-06-14T06:30:19;19.50;73.60
33815;DHT22;20121;51.910;8.406;2023-06-14T06:32:46;19.50;74.20
33815;DHT22;20121;51.910;8.406;2023-06-14T06:35:12;19.50;73.80
33815;DHT22;20121;51.910;8.406;2023-06-14T06:37:41;19.50;74.00
33815;DHT22;20121;51.910;8.406;2023-06-14T06:40:07;19.40;71.70
33815;DHT22;20121;51.910;8.406;2023-06-14T06:42:34;19.50;71.70
33815;DHT22;20121;51.910;8.406;2023-06-14T06:45:00;19.50;70.40
33815;DHT22;20121;51.910;8.406;2023-06-14T06:47:25;19.60;71.80
33815;DHT22;20121;51.910;8.406;2023-06-14T06:49:51;19.70;71.50
33815;DHT22;20121;51.910;8.406;2023-06-14T06:52:17;19.80;70.50
33815;DHT22;20121;51.910;8.406;2023-06-14T06:54:45;19.80;70.60
33815;DHT22;20121;51.910;8.406;2023-06-14T06:57:11;20.20;74.70
33815;DHT22;20121;51.910;8.406;2023-06-14T06:59:36;19.90;69.90
33815;DHT22;20121;51.910;8.406;2023-06-14T07:02:02;19.80;70.10
33815;DHT22;20121;51.910;8.406;2023-06-14T07:04:28;19.90;70.50
33815;DHT22;20121;51.910;8.406;2023-06-14T07:06:54;20.00;70.00
33815;DHT22;20121;51.910;8.406;2023-06-14T07:09:19;19.90;69.10
33815;DHT22;20121;51.910;8.406;2023-06-14T07:11:47;20.10;70.30
33815;DHT22;20121;51.910;8.406;2023-06-14T07:14:13;20.10;70.00
33815;DHT22;20121;51.910;8.406;2023-06-14T07:16:39;20.10;68.90
33815;DHT22;20121;51.910;8.406;2023-06-14T07:19:05;20.10;74.50
33815;DHT22;20121;51.910;8.406;2023-06-14T07:21:30;20.20;70.00
33815;DHT22;20121;51.910;8.406;2023-06-14T07:26:23;20.40;70.60
33815;DHT22;20121;51.910;8.406;2023-06-14T07:28:49;20.40;70.30
33815;DHT22;20121;51.910;8.406;2023-06-14T07:31:17;20.70;73.90
33815;DHT22;20121;51.910;8.406;2023-06-14T07:33:45;20.70;69.90
33815;DHT22;20121;51.910;8.406;2023-06-14T07:36:11;20.80;69.90
33815;DHT22;20121;51.910;8.406;2023-06-14T07:38:36;20.80;69.10
33815;DHT22;20121;51.910;8.406;2023-06-14T07:41:02;20.70;70.10
33815;DHT22;20121;51.910;8.406;2023-06-14T07:43:28;21.20;71.90
33815;DHT22;20121;51.910;8.406;2023-06-14T07:45:54;20.80;68.90
33815;DHT22;20121;51.910;8.406;2023-06-14T07:48:20;20.80;68.60
33815;DHT22;20121;51.910;8.406;2023-06-14T07:50:46;20.80;69.70
33815;DHT22;20121;51.910;8.406;2023-06-14T07:53:11;20.90;70.40
33815;DHT22;20121;51.910;8.406;2023-06-14T07:55:37;20.90;69.30
33815;DHT22;20121;51.910;8.406;2023-06-14T07:58:03;21.00;69.70
33815;DHT22;20121;51.910;8.406;2023-06-14T08:00:29;21.10;67.70
33815;DHT22;20121;51.910;8.406;2023-06-14T08:02:55;21.20;68.20
33815;DHT22;20121;51.910;8.406;2023-06-14T08:05:25;21.20;67.90
33815;DHT22;20121;51.910;8.406;2023-06-14T08:07:51;21.20;68.70
33815;DHT22;20121;51.910;8.406;2023-06-14T08:10:17;21.30;73.20
33815;DHT22;20121;51.910;8.406;2023-06-14T08:12:42;21.30;68.50
33815;DHT22;20121;51.910;8.406;2023-06-14T08:15:08;21.40;68.00
33815;DHT22;20121;51.910;8.406;2023-06-14T08:17:34;21.40;68.40
33815;DHT22;20121;51.910;8.406;2023-06-14T08:20:00;21.60;67.20
33815;DHT22;20121;51.910;8.406;2023-06-14T08:22:26;21.60;67.70
33815;DHT22;20121;51.910;8.406;2023-06-14T08:24:53;21.70;68.50
33815;DHT22;20121;51.910;8.406;2023-06-14T08:27:20;21.70;70.70
33815;DHT22;20121;51.910;8.406;2023-06-14T08:29:45;21.70;66.30
33815;DHT22;20121;51.910;8.406;2023-06-14T08:32:12;21.80;71.20
33815;DHT22;20121;51.910;8.406;2023-06-14T08:34:38;21.90;66.40
33815;DHT22;20121;51.910;8.406;2023-06-14T08:37:03;21.90;66.60
33815;DHT22;20121;51.910;8.406;2023-06-14T08:39:30;21.90;66.00
33815;DHT22;20121;51.910;8.406;2023-06-14T08:41:56;22.00;67.40
33815;DHT22;20121;51.910;8.406;2023-06-14T08:44:22;22.10;67.90
33815;DHT22;20121;51.910;8.406;2023-06-14T08:46:48;22.20;68.80
33815;DHT22;20121;51.910;8.406;2023-06-14T08:49:16;22.40;68.70
33815;DHT22;20121;51.910;8.406;2023-06-14T08:51:43;22.40;64.90
33815;DHT22;20121;51.910;8.406;2023-06-14T08:54:11;22.50;63.90
33815;DHT22;20121;51.910;8.406;2023-06-14T08:56:38;22.40;65.10
33815;DHT22;20121;51.910;8.406;2023-06-14T08:59:04;22.50;64.70
33815;DHT22;20121;51.910;8.406;2023-06-14T09:01:36;22.60;65.50
33815;DHT22;20121;51.910;8.406;2023-06-14T09:04:02;22.70;66.20
33815;DHT22;20121;51.910;8.406;2023-06-14T09:06:28;22.70;65.80
33815;DHT22;20121;51.910;8.406;2023-06-14T09:08:55;22.70;64.40
33815;DHT22;20121;51.910;8.406;2023-06-14T09:11:22;22.70;65.10
33815;DHT22;20121;51.910;8.406;2023-06-14T09:13:49;22.70;65.80
33815;DHT22;20121;51.910;8.406;2023-06-14T09:16:15;22.70;66.10
33815;DHT22;20121;51.910;8.406;2023-06-14T09:18:44;22.80;65.10
33815;DHT22;20121;51.910;8.406;2023-06-14T09:21:11;22.90;69.20
33815;DHT22;20121;51.910;8.406;2023-06-14T09:23:41;22.90;64.30
33815;DHT22;20121;51.910;8.406;2023-06-14T09:26:18;22.90;65.40
33815;DHT22;20121;51.910;8.406;2023-06-14T09:28:47;22.80;65.20
33815;DHT22;20121;51.910;8.406;2023-06-14T09:31:14;22.80;65.40
33815;DHT22;20121;51.910;8.406;2023-06-14T09:33:43;22.90;64.90
33815;DHT22;20121;51.910;8.406;2023-06-14T09:36:20;23.00;65.00
33815;DHT22;20121;51.910;8.406;2023-06-14T09:38:56;23.10;63.50
33815;DHT22;20121;51.910;8.406;2023-06-14T09:41:36;23.20;64.50
33815;DHT22;20121;51.910;8.406;2023-06-14T09:44:04;23.40;64.10
33815;DHT22;20121;51.910;8.406;2023-06-14T09:46:30;23.50;64.40
33815;DHT22;20121;51.910;8.406;2023-06-14T09:48:57;23.60;63.40
33815;DHT22;20121;51.910;8.406;2023-06-14T09:51:24;23.90;63.60
33815;DHT22;20121;51.910;8.406;2023-06-14T09:56:26;23.80;61.90
33815;DHT22;20121;51.910;8.406;2023-06-14T09:58:55;23.90;62.70
33815;DHT22;20121;51.910;8.406;2023-06-14T10:01:22;24.60;68.90
33815;DHT22;20121;51.910;8.406;2023-06-14T10:03:50;24.30;62.70
33815;DHT22;20121;51.910;8.406;2023-06-14T10:06:19;24.60;63.50
33815;DHT22;20121;51.910;8.406;2023-06-14T10:08:47;24.80;62.50
33815;DHT22;20121;51.910;8.406;2023-06-14T10:11:13;25.00;60.60
33815;DHT22;20121;51.910;8.406;2023-06-14T10:13:39;25.00;60.40
33815;DHT22;20121;51.910;8.406;2023-06-14T10:16:24;25.10;58.70
33815;DHT22;20121;51.910;8.406;2023-06-14T10:19:07;25.10;58.60
33815;DHT22;20121;51.910;8.406;2023-06-14T10:22:02;25.00;58.60
33815;DHT22;20121;51.910;8.406;2023-06-14T10:24:33;25.10;59.60
33815;DHT22;20121;51.910;8.406;2023-06-14T10:26:59;25.30;59.10
33815;DHT22;20121;51.910;8.406;2023-06-14T10:29:27;25.30;58.90
33815;DHT22;20121;51.910;8.406;2023-06-14T10:31:58;25.50;58.70
33815;DHT22;20121;51.910;8.406;2023-06-14T10:34:28;25.50;59.00
33815;DHT22;20121;51.910;8.406;2023-06-14T10:37:07;25.70;59.00
33815;DHT22;20121;51.910;8.406;2023-06-14T10:39:43;25.70;59.30
33815;DHT22;20121;51.910;8.406;2023-06-14T10:42:11;25.60;59.60
33815;DHT22;20121;51.910;8.406;2023-06-14T10:44:41;25.70;60.00
33815;DHT22;20121;51.910;8.406;2023-06-14T10:47:21;25.80;59.30
33815;DHT22;20121;51.910;8.406;2023-06-14T10:49:55;25.90;59.60
33815;DHT22;20121;51.910;8.406;2023-06-14T10:52:24;25.90;59.80
33815;DHT22;20121;51.910;8.406;2023-06-14T10:57:42;25.90;58.20
33815;DHT22;20121;51.910;8.406;2023-06-14T11:00:09;25.50;64.10
33815;DHT22;20121;51.910;8.406;2023-06-14T11:05:26;25.80;59.40
33815;DHT22;20121;51.910;8.406;2023-06-14T11:08:27;25.80;58.70
33815;DHT22;20121;51.910;8.406;2023-06-14T11:11:00;25.70;59.10
33815;DHT22;20121;51.910;8.406;2023-06-14T11:13:26;25.70;59.70
33815;DHT22;20121;51.910;8.406;2023-06-14T11:15:52;25.80;58.40
33815;DHT22;20121;51.910;8.406;2023-06-14T11:18:19;25.80;59.20
33815;DHT22;20121;51.910;8.406;2023-06-14T11:20:49;25.80;58.70
33815;DHT22;20121;51.910;8.406;2023-06-14T11:23:15;25.80;59.30
33815;DHT22;20121;51.910;8.406;2023-06-14T11:25:41;26.10;58.10
33815;DHT22;20121;51.910;8.406;2023-06-14T11:28:07;26.20;59.00
33815;DHT22;20121;51.910;8.406;2023-06-14T11:30:32;26.40;58.90
33815;DHT22;20121;51.910;8.406;2023-06-14T11:32:58;26.50;59.50
33815;DHT22;20121;51.910;8.406;2023-06-14T11:35:24;26.40;57.70
33815;DHT22;20121;51.910;8.406;2023-06-14T11:37:56;26.50;57.50
33815;DHT22;20121;51.910;8.406;2023-06-14T11:40:26;26.70;58.00
33815;DHT22;20121;51.910;8.406;2023-06-14T11:43:00;26.80;58.20
33815;DHT22;20121;51.910;8.406;2023-06-14T11:45:27;26.60;58.00
33815;DHT22;20121;51.910;8.406;2023-06-14T11:47:55;26.60;57.80
33815;DHT22;20121;51.910;8.406;2023-06-14T11:50:24;26.80;57.10
33815;DHT22;20121;51.910;8.406;2023-06-14T11:52:58;26.80;56.80
33815;DHT22;20121;51.910;8.406;2023-06-14T11:55:25;26.70;56.30
33815;DHT22;20121;51.910;8.406;2023-06-14T11:57:53;26.70;56.60
33815;DHT22;20121;51.910;8.406;2023-06-14T12:00:25;26.70;56.40
33815;DHT22;20121;51.910;8.406;2023-06-14T12:02:54;26.70;55.50
33815;DHT22;20121;51.910;8.406;2023-06-14T12:05:24;26.70;55.70
33815;DHT22;20121;51.910;8.406;2023-06-14T12:07:50;26.70;56.30
33815;DHT22;20121;51.910;8.406;2023-06-14T12:10:19;27.00;62.60
33815;DHT22;20121;51.910;8.406;2023-06-14T12:12:45;27.00;55.60
33815;DHT22;20121;51.910;8.406;2023-06-14T12:15:10;27.20;54.60
33815;DHT22;20121;51.910;8.406;2023-06-14T12:17:37;27.20;54.40
33815;DHT22;20121;51.910;8.406;2023-06-14T12:20:14;27.10;55.30
33815;DHT22;20121;51.910;8.406;2023-06-14T12:23:07;27.30;55.40
33815;DHT22;20121;51.910;8.406;2023-06-14T12:25:35;27.20;55.60
33815;DHT22;20121;51.910;8.406;2023-06-14T12:28:06;27.00;54.80
33815;DHT22;20121;51.910;8.406;2023-06-14T12:30:32;26.10;59.10
33815;DHT22;20121;51.910;8.406;2023-06-14T12:32:58;26.40;55.70
33815;DHT22;20121;51.910;8.406;2023-06-14T12:35:24;26.40;56.50
33815;DHT22;20121;51.910;8.406;2023-06-14T12:37:50;26.70;60.00
33815;DHT22;20121;51.910;8.406;2023-06-14T12:40:15;26.90;62.30
33815;DHT22;20121;51.910;8.406;2023-06-14T12:42:42;26.20;57.20
33815;DHT22;20121;51.910;8.406;2023-06-14T12:45:08;26.10;56.90
33815;DHT22;20121;51.910;8.406;2023-06-14T12:47:34;26.00;57.70
33815;DHT22;20121;51.910;8.406;2023-06-14T12:49:59;25.70;60.00
33815;DHT22;20121;51.910;8.406;2023-06-14T12:52:25;25.60;57.30
33815;DHT22;20121;51.910;8.406;2023-06-14T12:54:51;25.60;57.50
33815;DHT22;20121;51.910;8.406;2023-06-14T12:57:16;25.60;57.30
33815;DHT22;20121;51.910;8.406;2023-06-14T12:59:42;25.70;57.30
33815;DHT22;20121;51.910;8.406;2023-06-14T13:02:15;25.70;56.50
33815;DHT22;20121;51.910;8.406;2023-06-14T13:04:41;25.60;57.50
33815;DHT22;20121;51.910;8.406;2023-06-14T13:07:06;25.80;57.00
33815;DHT22;20121;51.910;8.406;2023-06-14T13:09:32;25.90;57.70
33815;DHT22;20121;51.910;8.406;2023-06-14T13:11:58;25.90;57.30
33815;DHT22;20121;51.910;8.406;2023-06-14T13:14:23;25.90;55.80
33815;DHT22;20121;51.910;8.406;2023-06-14T13:16:50;25.70;56.70
33815;DHT22;20121;51.910;8.406;2023-06-14T13:19:15;25.70;57.20
33815;DHT22;20121;51.910;8.406;2023-06-14T13:21:41;25.90;56.50
33815;DHT22;20121;51.910;8.406;2023-06-14T13:24:07;25.60;57.70
33815;DHT22;20121;51.910;8.406;2023-06-14T13:26:33;25.70;58.10
33815;DHT22;20121;51.910;8.406;2023-06-14T13:28:59;25.60;57.50
33815;DHT22;20121;51.910;8.406;2023-06-14T13:31:25;25.70;56.80
33815;DHT22;20121;51.910;8.406;2023-06-14T13:33:50;25.80;57.60
33815;DHT22;20121;51.910;8.406;2023-06-14T13:36:16;26.00;57.90
33815;DHT22;20121;51.910;8.406;2023-06-14T13:38:42;26.10;57.60
33815;DHT22;20121;51.910;8.406;2023-06-14T13:41:07;26.30;57.30
33815;DHT22;20121;51.910;8.406;2023-06-14T13:43:33;26.30;56.90
33815;DHT22;20121;51.910;8.406;2023-06-14T13:45:58;26.40;57.60
33815;DHT22;20121;51.910;8.406;2023-06-14T13:48:24;26.30;57.70
33815;DHT22;20121;51.910;8.406;2023-06-14T13:50:50;26.30;56.80
33815;DHT22;20121;51.910;8.406;2023-06-14T13:53:15;26.30;56.80
33815;DHT22;20121;51.910;8.406;2023-06-14T13:55:41;25.60;56.40
33815;DHT22;20121;51.910;8.406;2023-06-14T13:58:07;25.60;57.10
33815;DHT22;20121;51.910;8.406;2023-06-14T14:00:32;25.70;57.50
33815;DHT22;20121;51.910;8.406;2023-06-14T14:02:58;25.70;57.70
33815;DHT22;20121;51.910;8.406;2023-06-14T14:05:25;25.60;57.00
33815;DHT22;20121;51.910;8.406;2023-06-14T14:07:55;25.40;57.50
33815;DHT22;20121;51.910;8.406;2023-06-14T14:10:21;24.30;60.70
33815;DHT22;20121;51.910;8.406;2023-06-14T14:12:46;24.80;58.30
33815;DHT22;20121;51.910;8.406;2023-06-14T14:15:12;24.70;58.80
33815;DHT22;20121;51.910;8.406;2023-06-14T14:17:40;24.60;59.30
33815;DHT22;20121;51.910;8.406;2023-06-14T14:20:07;24.60;62.90
33815;DHT22;20121;51.910;8.406;2023-06-14T14:22:32;24.00;58.50
33815;DHT22;20121;51.910;8.406;2023-06-14T14:24:58;24.70;59.00
33815;DHT22;20121;51.910;8.406;2023-06-14T14:27:23;24.70;59.20
33815;DHT22;20121;51.910;8.406;2023-06-14T14:29:49;24.60;58.60
33815;DHT22;20121;51.910;8.406;2023-06-14T14:32:15;24.60;58.20
33815;DHT22;20121;51.910;8.406;2023-06-14T14:34:41;24.50;59.20
33815;DHT22;20121;51.910;8.406;2023-06-14T14:37:06;24.50;59.30
33815;DHT22;20121;51.910;8.406;2023-06-14T14:39:32;24.50;59.70
33815;DHT22;20121;51.910;8.406;2023-06-14T14:41:58;24.70;58.60
33815;DHT22;20121;51.910;8.406;2023-06-14T14:44:24;24.50;58.30
33815;DHT22;20121;51.910;8.406;2023-06-14T14:46:49;24.50;58.60
33815;DHT22;20121;51.910;8.406;2023-06-14T14:49:15;24.40;59.20
33815;DHT22;20121;51.910;8.406;2023-06-14T14:51:40;24.40;59.30
33815;DHT22;20121;51.910;8.406;2023-06-14T14:54:06;24.50;65.70
33815;DHT22;20121;51.910;8.406;2023-06-14T14:56:32;24.50;61.60
33815;DHT22;20121;51.910;8.406;2023-06-14T14:58:58;24.70;60.00
33815;DHT22;20121;51.910;8.406;2023-06-14T15:01:23;24.80;58.80
33815;DHT22;20121;51.910;8.406;2023-06-14T15:03:49;24.90;59.70
33815;DHT22;20121;51.910;8.406;2023-06-14T15:06:15;25.00;59.00
33815;DHT22;20121;51.910;8.406;2023-06-14T15:08:40;25.20;59.60
33815;DHT22;20121;51.910;8.406;2023-06-14T15:11:06;25.30;57.80
33815;DHT22;20121;51.910;8.406;2023-06-14T15:13:32;25.30;58.10
33815;DHT22;20121;51.910;8.406;2023-06-14T15:15:57;25.10;58.80
33815;DHT22;20121;51.910;8.406;2023-06-14T15:18:23;24.90;59.80
33815;DHT22;20121;51.910;8.406;2023-06-14T15:20:49;24.60;59.80
33815;DHT22;20121;51.910;8.406;2023-06-14T15:23:15;24.50;60.10
33815;DHT22;20121;51.910;8.406;2023-06-14T15:25:45;24.30;60.80
33815;DHT22;20121;51.910;8.406;2023-06-14T15:28:11;24.10;60.90
33815;DHT22;20121;51.910;8.406;2023-06-14T15:30:37;24.10;61.40
33815;DHT22;20121;51.910;8.406;2023-06-14T15:33:02;24.10;61.70
33815;DHT22;20121;51.910;8.406;2023-06-14T15:35:28;24.10;61.90
33815;DHT22;20121;51.910;8.406;2023-06-14T15:37:53;24.10;61.90
33815;DHT22;20121;51.910;8.406;2023-06-14T15:40:20;24.20;60.40
33815;DHT22;20121;51.910;8.406;2023-06-14T15:42:45;24.20;61.00
33815;DHT22;20121;51.910;8.406;2023-06-14T15:45:11;24.30;60.90